createdAt,value
2022-11-14T00:01:07.876Z,41.58
2022-11-14T00:03:53.482Z,42.17
2022-11-14T00:06:38.828Z,43.05
2022-11-14T00:09:28.540Z,42.03
2022-11-14T00:12:13.813Z,47.75
2022-11-14T00:14:59.300Z,46.58
2022-11-14T00:17:44.705Z,47.70
2022-11-14T00:20:30.177Z,44.35
2022-11-14T00:23:16.144Z,45.33
2022-11-14T00:26:01.805Z,47.83
2022-11-14T00:28:47.192Z,46.80
2022-11-14T00:31:32.722Z,52.35
2022-11-14T00:34:18.210Z,45.08
2022-11-14T00:37:03.995Z,48.65
2022-11-14T00:39:48.968Z,51.33
2022-11-14T00:42:34.798Z,50.63
2022-11-14T00:45:20.309Z,49.20
2022-11-14T00:48:05.731Z,43.50
2022-11-14T00:50:50.984Z,43.80
2022-11-14T00:53:36.511Z,43.20
2022-11-14T00:56:22.114Z,48.30
2022-11-14T00:59:07.619Z,42.38
2022-11-14T01:01:57.567Z,44.03
2022-11-14T01:04:43.029Z,44.30
2022-11-14T01:07:28.455Z,46.25
2022-11-14T01:10:13.867Z,44.13
2022-11-14T01:12:59.207Z,44.97
2022-11-14T01:15:47.240Z,46.63
2022-11-14T01:18:33.637Z,46.53
2022-11-14T01:21:18.945Z,48.75
2022-11-14T01:24:04.825Z,42.85
2022-11-14T01:26:50.607Z,44.15
2022-11-14T01:29:35.853Z,46.92
2022-11-14T01:32:21.104Z,46.58
2022-11-14T01:35:06.661Z,48.05
2022-11-14T01:37:51.875Z,46.38
2022-11-14T01:40:41.992Z,44.35
2022-11-14T01:43:29.202Z,48.10
2022-11-14T01:46:23.340Z,50.58
2022-11-14T01:49:20.623Z,47.58
2022-11-14T01:52:25.780Z,47.80
2022-11-14T01:55:11.238Z,47.10
2022-11-14T01:57:57.829Z,49.63
2022-11-14T02:00:44.273Z,48.75
2022-11-14T02:03:29.796Z,46.35
2022-11-14T02:06:18.924Z,44.83
2022-11-14T02:09:06.638Z,48.10
2022-11-14T02:11:55.020Z,47.65
2022-11-14T02:14:42.413Z,41.63
2022-11-14T02:17:30.145Z,43.92
2022-11-14T02:20:32.522Z,47.17
2022-11-14T02:23:26.887Z,46.35
2022-11-14T02:26:12.512Z,52.92
2022-11-14T02:28:57.830Z,54.45
2022-11-14T02:31:43.301Z,45.35
2022-11-14T02:34:28.850Z,49.75
2022-11-14T02:37:14.089Z,47.22
2022-11-14T02:39:59.251Z,42.60
2022-11-14T02:42:44.628Z,43.70
2022-11-14T02:45:29.896Z,44.17
2022-11-14T02:48:15.342Z,49.35
2022-11-14T02:51:00.447Z,50.45
2022-11-14T02:53:45.745Z,42.15
2022-11-14T02:56:31.047Z,42.80
2022-11-14T02:59:16.310Z,49.15
2022-11-14T03:02:01.706Z,46.67
2022-11-14T03:04:46.981Z,44.92
2022-11-14T03:07:32.511Z,45.05
2022-11-14T03:10:18.068Z,48.47
2022-11-14T03:13:03.216Z,44.15
2022-11-14T03:15:48.617Z,42.65
2022-11-14T03:18:33.836Z,42.92
2022-11-14T03:21:22.198Z,49.05
2022-11-14T03:24:07.640Z,49.95
2022-11-14T03:26:52.589Z,52.33
2022-11-14T03:29:37.948Z,46.05
2022-11-14T03:32:23.252Z,49.90
2022-11-14T03:35:09.240Z,48.25
2022-11-14T03:37:56.665Z,50.70
2022-11-14T03:40:42.259Z,53.38
2022-11-14T03:43:31.992Z,51.78
2022-11-14T03:46:17.250Z,49.28
2022-11-14T03:49:02.520Z,49.88
2022-11-14T03:51:48.240Z,52.72
2022-11-14T03:54:33.597Z,50.35
2022-11-14T03:57:18.994Z,54.95
2022-11-14T04:00:05.005Z,47.22
2022-11-14T04:02:50.444Z,52.47
2022-11-14T04:05:35.932Z,51.72
2022-11-14T04:08:21.140Z,52.35
2022-11-14T04:11:06.542Z,48.22
2022-11-14T04:13:51.925Z,53.80
2022-11-14T04:16:37.089Z,51.10
2022-11-14T04:19:22.398Z,49.53
2022-11-14T04:22:07.674Z,49.50
2022-11-14T04:24:53.043Z,45.20
2022-11-14T04:27:38.377Z,48.15
2022-11-14T04:30:23.756Z,50.90
2022-11-14T04:33:09.140Z,47.47
2022-11-14T04:35:54.545Z,53.70
2022-11-14T04:38:40.007Z,52.20
2022-11-14T04:41:25.272Z,52.38
2022-11-14T04:44:10.768Z,48.17
2022-11-14T04:46:56.284Z,49.40
2022-11-14T04:49:41.533Z,66.13
2022-11-14T04:52:27.285Z,48.58
2022-11-14T04:55:12.732Z,50.78
2022-11-14T04:57:59.066Z,53.78
2022-11-14T05:00:44.716Z,52.17
2022-11-14T05:03:30.024Z,52.38
2022-11-14T05:06:15.223Z,51.65
2022-11-14T05:09:00.503Z,48.53
2022-11-14T05:11:45.770Z,49.13
2022-11-14T05:14:31.802Z,42.58
2022-11-14T05:17:17.264Z,47.63
2022-11-14T05:20:03.418Z,48.78
2022-11-14T05:22:52.321Z,51.83
2022-11-14T05:25:37.779Z,59.95
2022-11-14T05:28:23.222Z,65.50
2022-11-14T05:31:15.014Z,59.75
2022-11-14T05:34:00.372Z,55.85
2022-11-14T05:36:45.876Z,73.72
2022-11-14T05:39:31.623Z,52.90
2022-11-14T05:42:17.536Z,58.55
2022-11-14T05:45:03.036Z,55.20
2022-11-14T05:47:48.184Z,53.20
2022-11-14T05:50:33.512Z,57.40
2022-11-14T05:53:18.863Z,60.38
2022-11-14T05:56:06.128Z,67.30
2022-11-14T05:58:51.198Z,57.13
2022-11-14T06:01:37.843Z,58.55
2022-11-14T06:04:23.324Z,56.63
2022-11-14T06:07:08.690Z,54.03
2022-11-14T06:09:53.805Z,53.55
2022-11-14T06:12:39.866Z,55.95
2022-11-14T06:15:25.033Z,53.70
2022-11-14T06:18:10.455Z,58.33
2022-11-14T06:21:02.440Z,50.70
2022-11-14T06:23:48.873Z,58.38
2022-11-14T06:26:34.379Z,48.97
2022-11-14T06:29:19.908Z,50.35
2022-11-14T06:32:05.453Z,53.28
2022-11-14T06:34:50.648Z,48.53
2022-11-14T06:37:37.432Z,51.55
2022-11-14T06:40:22.436Z,50.35
2022-11-14T06:43:07.728Z,51.25
2022-11-14T06:45:56.136Z,57.20
2022-11-14T06:51:27.582Z,52.90
2022-11-14T06:54:13.238Z,50.25
2022-11-14T06:56:58.739Z,54.78
2022-11-14T06:59:44.480Z,50.08
2022-11-14T07:02:29.796Z,50.25
2022-11-14T07:05:15.401Z,46.75
2022-11-14T07:08:01.017Z,43.72
2022-11-14T07:10:46.260Z,47.30
2022-11-14T07:13:32.750Z,45.40
2022-11-14T07:16:18.724Z,45.67
2022-11-14T07:19:06.637Z,42.50
2022-11-14T07:21:52.247Z,43.00
2022-11-14T07:24:37.774Z,40.65
2022-11-14T07:27:23.270Z,39.17
2022-11-14T07:30:09.079Z,34.15
2022-11-14T07:32:58.908Z,36.88
2022-11-14T07:35:44.224Z,35.83
2022-11-14T07:38:34.904Z,38.47
2022-11-14T07:41:20.219Z,35.70
2022-11-14T07:44:05.261Z,34.85
2022-11-14T07:46:51.971Z,34.33
2022-11-14T07:49:36.976Z,36.88
2022-11-14T07:52:22.344Z,33.67
2022-11-14T07:55:08.020Z,35.58
2022-11-14T07:57:54.958Z,29.80
2022-11-14T08:00:40.979Z,28.35
2022-11-14T08:03:26.192Z,34.60
2022-11-14T08:06:13.179Z,32.97
2022-11-14T08:08:58.157Z,31.13
2022-11-14T08:11:49.427Z,35.95
2022-11-14T08:14:35.368Z,31.60
2022-11-14T08:17:22.137Z,34.42
2022-11-14T08:20:09.012Z,36.63
2022-11-14T08:23:05.533Z,33.55
2022-11-14T08:25:51.023Z,36.63
2022-11-14T08:28:36.655Z,32.35
2022-11-14T08:31:22.549Z,34.00
2022-11-14T08:34:07.735Z,32.22
2022-11-14T08:36:53.105Z,32.08
2022-11-14T08:39:38.277Z,31.75
2022-11-14T08:42:23.737Z,31.70
2022-11-14T08:45:09.404Z,32.60
2022-11-14T08:47:55.687Z,38.92
2022-11-14T08:50:41.008Z,38.55
2022-11-14T08:53:26.169Z,37.97
2022-11-14T08:56:11.731Z,40.15
2022-11-14T08:58:56.745Z,35.85
2022-11-14T09:01:42.894Z,41.60
2022-11-14T09:04:28.933Z,32.05
2022-11-14T09:07:14.144Z,34.83
2022-11-14T09:09:59.428Z,36.90
2022-11-14T09:12:44.620Z,41.13
2022-11-14T09:15:30.808Z,40.75
2022-11-14T09:18:16.147Z,35.08
2022-11-14T09:21:03.432Z,41.95
2022-11-14T09:23:48.944Z,38.38
2022-11-14T09:26:34.473Z,38.33
2022-11-14T09:29:19.855Z,42.65
2022-11-14T09:32:05.149Z,42.00
2022-11-14T09:34:50.194Z,39.50
2022-11-14T09:37:35.610Z,44.78
2022-11-14T09:40:20.990Z,42.75
2022-11-14T09:43:24.746Z,44.28
2022-11-14T09:46:34.109Z,50.05
2022-11-14T09:49:39.540Z,46.60
2022-11-14T09:52:36.601Z,45.97
2022-11-14T09:55:31.000Z,50.25
2022-11-14T09:58:21.153Z,44.08
2022-11-14T10:01:35.455Z,50.13
2022-11-14T10:04:40.033Z,48.95
2022-11-14T10:08:02.686Z,50.58
2022-11-14T10:11:20.020Z,44.08
2022-11-14T10:14:07.841Z,49.20
2022-11-14T10:20:09.854Z,50.75
2022-11-14T10:23:15.571Z,54.17
2022-11-14T10:26:10.250Z,44.88
2022-11-14T10:29:21.619Z,55.90
2022-11-14T10:32:34.567Z,55.55
2022-11-14T10:35:35.144Z,52.60
2022-11-14T10:38:36.981Z,51.63
2022-11-14T10:41:54.938Z,52.20
2022-11-14T10:44:42.311Z,59.72
2022-11-14T10:47:34.188Z,56.70
2022-11-14T10:50:25.050Z,52.25
2022-11-14T10:53:42.784Z,52.90
2022-11-14T10:56:28.207Z,56.72
2022-11-14T10:59:13.355Z,49.72
2022-11-14T11:01:59.009Z,54.05
2022-11-14T11:04:45.407Z,50.75
2022-11-14T11:07:49.092Z,51.40
2022-11-14T11:10:57.021Z,51.25
2022-11-14T11:13:52.998Z,56.53
2022-11-14T11:16:38.074Z,50.88
2022-11-14T11:19:25.823Z,52.08
2022-11-14T11:22:29.611Z,54.47
2022-11-14T11:25:36.344Z,50.97
2022-11-14T11:28:22.439Z,54.05
2022-11-14T11:31:10.258Z,56.25
2022-11-14T11:33:55.507Z,49.33
2022-11-14T11:36:50.543Z,55.30
2022-11-14T11:39:41.852Z,53.30
2022-11-14T11:45:49.341Z,52.60
2022-11-14T11:48:39.089Z,58.08
2022-11-14T11:51:27.066Z,50.08
2022-11-14T11:57:14.001Z,54.63
2022-11-14T12:00:16.073Z,55.97
2022-11-14T12:03:02.108Z,50.72
2022-11-14T12:05:57.596Z,53.00
2022-11-14T12:09:01.890Z,56.08
2022-11-14T12:11:55.195Z,48.25
2022-11-14T12:15:06.754Z,52.08
2022-11-14T12:18:00.756Z,52.25
2022-11-14T12:21:12.365Z,51.10
2022-11-14T12:24:14.124Z,56.65
2022-11-14T12:27:19.418Z,49.03
2022-11-14T12:30:18.780Z,58.65
2022-11-14T12:33:36.773Z,56.35
2022-11-14T12:36:30.325Z,52.70
2022-11-14T12:39:27.977Z,50.42
2022-11-14T12:42:19.011Z,55.88
2022-11-14T12:45:04.572Z,58.63
2022-11-14T12:48:42.555Z,62.67
2022-11-14T12:51:27.881Z,60.95
2022-11-14T12:54:46.586Z,56.33
2022-11-14T12:57:49.166Z,63.92
2022-11-14T13:00:45.022Z,73.18
2022-11-14T13:03:48.884Z,69.95
2022-11-14T13:06:36.863Z,66.93
2022-11-14T13:12:46.173Z,68.78
2022-11-14T13:15:52.309Z,72.32
2022-11-14T13:19:08.740Z,68.57
2022-11-14T13:22:12.407Z,74.18
2022-11-14T13:25:03.940Z,74.22
2022-11-14T13:28:07.146Z,72.50
2022-11-14T13:31:06.942Z,75.15
2022-11-14T13:34:00.659Z,70.88
2022-11-14T13:37:21.783Z,77.63
2022-11-14T13:40:18.747Z,75.60
2022-11-14T13:43:25.952Z,74.35
2022-11-14T13:46:25.153Z,74.13
2022-11-14T13:49:34.764Z,82.45
2022-11-14T13:52:20.464Z,82.32
2022-11-14T13:55:06.600Z,83.20
2022-11-14T13:58:26.244Z,76.72
2022-11-14T14:01:22.323Z,82.85
2022-11-14T14:04:29.133Z,77.82
2022-11-14T14:07:23.271Z,80.60
2022-11-14T14:10:42.234Z,87.47
2022-11-14T14:13:47.933Z,90.30
2022-11-14T14:16:49.943Z,84.95
2022-11-14T14:19:53.404Z,88.38
2022-11-14T14:22:47.288Z,92.07
2022-11-14T14:25:38.608Z,116.45
2022-11-14T14:28:49.493Z,87.70
2022-11-14T14:31:40.592Z,86.25
2022-11-14T14:34:31.225Z,92.20
2022-11-14T14:37:21.679Z,99.93
2022-11-14T14:40:22.328Z,86.05
2022-11-14T14:43:08.107Z,89.80
2022-11-14T14:45:54.802Z,99.85
2022-11-14T14:48:43.577Z,105.60
2022-11-14T14:51:34.275Z,113.65
2022-11-14T14:54:25.985Z,99.10
2022-11-14T14:57:23.049Z,108.20
2022-11-14T15:00:26.184Z,107.20
2022-11-14T15:03:11.577Z,110.70
2022-11-14T15:06:02.011Z,116.72
2022-11-14T15:08:47.648Z,105.63
2022-11-14T15:11:34.053Z,98.47
2022-11-14T15:14:22.875Z,102.40
2022-11-14T15:19:54.233Z,111.63
2022-11-14T15:22:39.623Z,117.90
2022-11-14T15:25:26.590Z,102.90
2022-11-14T15:28:21.547Z,114.40
2022-11-14T15:31:21.122Z,121.95
2022-11-14T15:34:35.381Z,112.75
2022-11-14T15:37:23.119Z,107.30
2022-11-14T15:40:22.016Z,115.07
2022-11-14T15:43:37.578Z,121.40
2022-11-14T15:46:27.816Z,124.20
2022-11-14T15:49:26.375Z,136.38
2022-11-14T15:52:24.729Z,131.98
2022-11-14T15:55:21.745Z,130.52
2022-11-14T15:58:38.812Z,143.30
2022-11-14T16:01:24.085Z,139.52
2022-11-14T16:04:18.992Z,156.15
2022-11-14T16:07:04.703Z,150.75
2022-11-14T16:09:51.001Z,153.57
2022-11-14T16:12:36.530Z,151.60
2022-11-14T16:15:25.025Z,147.05
2022-11-14T16:18:12.084Z,181.50
2022-11-14T16:20:59.474Z,180.50
2022-11-14T16:23:47.863Z,158.90
2022-11-14T16:26:33.311Z,164.25
2022-11-14T16:29:18.737Z,157.32
2022-11-14T16:32:04.178Z,170.05
2022-11-14T16:34:49.403Z,183.60
2022-11-14T16:37:34.806Z,176.48
2022-11-14T16:40:29.432Z,189.52
2022-11-14T16:43:14.924Z,178.50
2022-11-14T16:46:05.144Z,184.20
2022-11-14T16:48:50.871Z,222.23
2022-11-14T16:51:51.541Z,198.48
2022-11-14T16:54:36.744Z,206.32
2022-11-14T16:57:22.532Z,192.13
2022-11-14T17:00:12.365Z,225.00
2022-11-14T17:02:58.040Z,189.32
2022-11-14T17:05:49.885Z,209.93
2022-11-14T17:08:35.880Z,205.63
2022-11-14T17:11:22.041Z,227.20
2022-11-14T17:14:07.379Z,200.88
2022-11-14T17:16:52.891Z,215.23
2022-11-14T17:19:45.761Z,207.70
2022-11-14T17:22:30.657Z,213.98
2022-11-14T17:25:16.102Z,187.90
2022-11-14T17:28:01.633Z,219.43
2022-11-14T17:30:47.009Z,202.88
2022-11-14T17:33:32.868Z,275.17
2022-11-14T17:36:18.847Z,229.52
2022-11-14T17:39:04.288Z,246.40
2022-11-14T17:41:49.801Z,191.88
2022-11-14T17:44:34.842Z,267.60
2022-11-14T17:47:20.878Z,202.68
2022-11-14T17:50:06.556Z,220.30
2022-11-14T17:52:52.100Z,226.68
2022-11-14T17:55:37.443Z,195.63
2022-11-14T17:58:23.532Z,301.42
2022-11-14T18:01:14.295Z,202.95
2022-11-14T18:04:05.532Z,211.00
2022-11-14T18:06:51.923Z,287.15
2022-11-14T18:09:37.248Z,184.02
2022-11-14T18:12:22.622Z,296.42
2022-11-14T18:15:08.510Z,186.68
2022-11-14T18:17:53.934Z,263.42
2022-11-14T18:20:39.360Z,195.63
2022-11-14T18:23:25.390Z,212.32
2022-11-14T18:26:14.751Z,220.65
2022-11-14T18:29:04.465Z,200.15
2022-11-14T18:31:49.987Z,173.57
2022-11-14T18:34:38.556Z,176.85
2022-11-14T18:40:16.215Z,176.52
2022-11-14T18:43:02.344Z,184.73
2022-11-14T18:45:47.730Z,200.90
2022-11-14T18:48:34.068Z,183.90
2022-11-14T18:51:29.877Z,234.88
2022-11-14T18:54:17.634Z,266.67
2022-11-14T18:57:03.036Z,194.52
2022-11-14T18:59:48.330Z,225.85
2022-11-14T19:02:33.702Z,202.73
2022-11-14T19:05:18.910Z,215.55
2022-11-14T19:08:05.334Z,215.68
2022-11-14T19:10:50.628Z,184.43
2022-11-14T19:13:35.976Z,249.27
2022-11-14T19:16:21.255Z,196.60
2022-11-14T19:19:07.900Z,213.23
2022-11-14T19:21:54.190Z,255.18
2022-11-14T19:24:43.203Z,224.20
2022-11-14T19:27:28.439Z,201.43
2022-11-14T19:30:15.806Z,328.27
2022-11-14T19:33:04.617Z,244.30
2022-11-14T19:35:49.670Z,258.85
2022-11-14T19:38:35.161Z,228.32
2022-11-14T19:41:21.753Z,218.57
2022-11-14T19:44:07.349Z,237.48
2022-11-14T19:46:52.822Z,211.68
2022-11-14T19:49:38.276Z,224.82
2022-11-14T19:52:28.374Z,216.27
2022-11-14T19:55:16.912Z,253.45
2022-11-14T20:00:47.893Z,219.85
2022-11-14T20:03:33.633Z,235.98
2022-11-14T20:06:26.352Z,230.98
2022-11-14T20:09:12.492Z,253.57
2022-11-14T20:11:58.383Z,255.10
2022-11-14T20:14:44.176Z,244.80
2022-11-14T20:17:30.097Z,259.40
2022-11-14T20:20:16.083Z,239.32
2022-11-14T20:23:02.161Z,292.40
2022-11-14T20:25:57.043Z,228.52
2022-11-14T20:28:45.254Z,237.00
2022-11-14T20:31:31.970Z,250.07
2022-11-14T20:34:17.090Z,224.77
2022-11-14T20:37:10.960Z,241.07
2022-11-14T20:39:57.432Z,232.32
2022-11-14T20:42:42.938Z,236.02
2022-11-14T20:45:28.342Z,244.65
2022-11-14T20:48:13.802Z,253.70
2022-11-14T20:51:12.616Z,215.20
2022-11-14T20:53:57.622Z,243.00
2022-11-14T20:56:42.930Z,216.70
2022-11-14T20:59:28.355Z,236.48
2022-11-14T21:02:15.926Z,237.52
2022-11-14T21:05:01.717Z,198.13
2022-11-14T21:07:47.257Z,333.48
2022-11-14T21:10:45.834Z,197.15
2022-11-14T21:13:49.449Z,218.77
2022-11-14T21:16:37.571Z,203.98
2022-11-14T21:19:23.606Z,207.60
2022-11-14T21:22:08.687Z,181.02
2022-11-14T21:24:53.972Z,212.25
2022-11-14T21:27:39.257Z,195.32
2022-11-14T21:30:24.538Z,196.93
2022-11-14T21:33:09.893Z,206.52
2022-11-14T21:35:55.279Z,202.80
2022-11-14T21:38:40.700Z,236.38
2022-11-14T21:41:27.731Z,267.00
2022-11-14T21:44:14.604Z,189.38
2022-11-14T21:47:00.031Z,187.93
2022-11-14T21:49:45.029Z,180.90
2022-11-14T21:52:32.560Z,193.80
2022-11-14T21:55:17.773Z,174.15
2022-11-14T21:58:03.095Z,172.63
2022-11-14T22:00:48.444Z,227.38
2022-11-14T22:03:52.215Z,179.30
2022-11-14T22:06:37.420Z,175.18
2022-11-14T22:09:22.837Z,155.82
2022-11-14T22:12:08.124Z,173.75
2022-11-14T22:14:53.431Z,166.30
2022-11-14T22:17:38.804Z,173.10
2022-11-14T22:20:24.080Z,152.18
2022-11-14T22:23:09.336Z,149.68
2022-11-14T22:25:59.387Z,145.52
2022-11-14T22:28:44.520Z,164.40
2022-11-14T22:31:29.832Z,169.38
2022-11-14T22:34:15.109Z,174.70
2022-11-14T22:37:00.353Z,155.77
2022-11-14T22:39:45.682Z,174.23
2022-11-14T22:42:30.966Z,167.13
2022-11-14T22:45:16.348Z,167.73
2022-11-14T22:48:01.715Z,178.95
2022-11-14T22:50:47.497Z,191.75
2022-11-14T22:53:35.705Z,199.07
2022-11-14T22:56:23.648Z,202.15
2022-11-14T22:59:09.271Z,191.48
2022-11-14T23:01:55.248Z,207.50
2022-11-14T23:04:40.489Z,236.80
2022-11-14T23:07:26.894Z,223.30
2022-11-14T23:10:12.227Z,227.40
2022-11-14T23:12:57.629Z,238.02
2022-11-14T23:15:47.889Z,245.35
2022-11-14T23:18:33.330Z,240.85
2022-11-14T23:21:24.524Z,286.88
2022-11-14T23:24:15.023Z,305.05
2022-11-14T23:27:00.389Z,245.82
2022-11-14T23:29:45.879Z,259.75
2022-11-14T23:32:31.359Z,257.17
2022-11-14T23:35:16.699Z,278.35
2022-11-14T23:38:05.052Z,288.25
2022-11-14T23:40:54.498Z,293.17
2022-11-14T23:43:39.829Z,274.52
2022-11-14T23:46:25.269Z,258.50
2022-11-14T23:49:10.435Z,263.92
2022-11-14T23:51:55.719Z,357.73
2022-11-14T23:54:41.077Z,298.77
2022-11-14T23:57:26.320Z,257.60
